Time;durP1;ratioP1;P1;durP2;ratioP2;P2;SDS_P1;SDS_P2;PMS_P1;PMS_P2;Temp;Humidity;BMP_temperature;BMP_pressure;BME280_temperature;BME280_humidity;BME280_pressure;Samples;Min_cycle;Max_cycle;Signal;HPM_P1;HPM_P2
2023/09/13 00:02:24;;;;;;;21.05;15.32;;;;;;;18.52;100.00;92665.38;5000167;28;20053;-80
2023/09/13 00:04:50;;;;;;;21.92;14.38;;;;;;;18.55;100.00;92663.94;5000049;28;20035;-81
2023/09/13 00:07:15;;;;;;;22.27;15.77;;;;;;;18.58;100.00;92667.84;5000159;28;20500;-80
2023/09/13 00:09:41;;;;;;;24.83;16.23;;;;;;;18.60;100.00;92665.59;4998614;28;20026;-80
2023/09/13 00:12:08;;;;;;;21.27;15.98;;;;;;;18.61;100.00;92652.03;4999433;28;20062;-80
2023/09/13 00:14:34;;;;;;;23.40;16.08;;;;;;;18.62;100.00;92643.00;4999009;28;20034;-81
2023/09/13 00:16:59;;;;;;;21.92;15.45;;;;;;;18.64;100.00;92634.69;4982500;28;20093;-81
2023/09/13 00:19:28;;;;;;;22.33;15.48;;;;;;;18.65;100.00;92625.63;4998651;28;20145;-80
2023/09/13 00:21:54;;;;;;;25.45;15.95;;;;;;;18.69;100.00;92635.25;4998409;28;20121;-81
2023/09/13 00:24:20;;;;;;;23.30;16.13;;;;;;;18.61;100.00;92627.41;4998588;28;20030;-80
2023/09/13 00:26:46;;;;;;;23.33;16.05;;;;;;;18.71;100.00;92633.03;5003363;28;20045;-80
2023/09/13 00:29:11;;;;;;;25.52;16.17;;;;;;;18.56;100.00;92633.72;5017043;28;20069;-81
2023/09/13 00:31:37;;;;;;;23.45;17.08;;;;;;;18.41;100.00;92637.78;5000334;28;20522;-80
2023/09/13 00:34:03;;;;;;;26.45;17.50;;;;;;;18.31;100.00;92638.22;5017844;28;20044;-80
2023/09/13 00:36:29;;;;;;;27.25;17.25;;;;;;;18.24;100.00;92630.81;5017037;28;20472;-80
2023/09/13 00:38:54;;;;;;;23.05;17.05;;;;;;;18.19;100.00;92635.53;5000213;28;20034;-81
2023/09/13 00:41:20;;;;;;;22.80;16.85;;;;;;;18.13;100.00;92640.31;5000147;28;20396;-81
2023/09/13 00:43:46;;;;;;;23.98;17.05;;;;;;;18.08;100.00;92630.69;5001144;28;20112;-81
2023/09/13 00:46:12;;;;;;;26.30;17.98;;;;;;;18.05;100.00;92636.63;5017174;28;20042;-80
2023/09/13 00:48:38;;;;;;;25.15;18.10;;;;;;;18.05;100.00;92641.94;5016149;28;20523;-81
2023/09/13 00:51:04;;;;;;;24.13;16.95;;;;;;;18.04;100.00;92640.38;4992528;28;20068;-80
2023/09/13 00:53:32;;;;;;;23.58;17.15;;;;;;;18.04;100.00;92643.03;5016881;28;20115;-80
2023/09/13 00:55:58;;;;;;;24.83;16.80;;;;;;;18.01;100.00;92643.72;4999455;28;20068;-80
2023/09/13 00:58:26;;;;;;;24.33;17.50;;;;;;;18.05;100.00;92651.75;4997872;28;20492;-80
2023/09/13 01:00:53;;;;;;;23.98;18.50;;;;;;;18.04;100.00;92645.69;5017632;28;20065;-80
2023/09/13 01:03:21;;;;;;;26.77;18.60;;;;;;;18.06;100.00;92646.13;4999495;28;20034;-80
2023/09/13 01:05:49;;;;;;;28.60;18.38;;;;;;;18.07;100.00;92634.44;5016904;28;20037;-80
2023/09/13 01:08:15;;;;;;;26.02;18.83;;;;;;;18.06;100.00;92654.09;4997862;28;20022;-81
2023/09/13 01:10:41;;;;;;;23.15;17.85;;;;;;;18.08;100.00;92651.09;5016588;28;20053;-81
2023/09/13 01:13:07;;;;;;;24.83;18.80;;;;;;;18.07;100.00;92647.66;5017129;28;20033;-80
2023/09/13 01:15:38;;;;;;;23.98;18.30;;;;;;;18.08;100.00;92638.63;4999315;28;20048;-80
2023/09/13 01:18:35;;;;;;;23.73;18.50;;;;;;;18.08;100.00;92641.28;4997820;28;20038;-80
2023/09/13 01:21:47;;;;;;;23.17;18.10;;;;;;;18.10;100.00;92633.00;5015942;28;20046;-79
2023/09/13 01:24:43;;;;;;;27.02;18.50;;;;;;;18.13;100.00;92632.34;5017112;28;20029;-81
2023/09/13 01:27:46;;;;;;;26.08;19.13;;;;;;;18.13;100.00;92634.22;5017029;28;20049;-80
2023/09/13 01:30:12;;;;;;;;;;;;;;;18.19;100.00;92630.25;4998543;28;20037;-80
2023/09/13 01:32:43;;;;;;;26.02;17.67;;;;;;;18.15;100.00;92635.44;4999244;28;20005;-80
2023/09/13 01:35:09;;;;;;;23.27;18.33;;;;;;;18.17;100.00;92632.44;4998748;28;20516;-80
2023/09/13 01:37:34;;;;;;;28.85;19.17;;;;;;;18.17;100.00;92627.16;5016812;28;20053;-79
2023/09/13 01:40:00;;;;;;;24.88;17.67;;;;;;;18.15;100.00;92624.06;4991638;28;20484;-80
2023/09/13 01:42:29;;;;;;;25.33;18.60;;;;;;;18.14;100.00;92625.94;4997067;28;20030;-80
2023/09/13 01:44:56;;;;;;;25.60;17.27;;;;;;;18.14;100.00;92627.81;4979141;28;20491;-80
2023/09/13 01:47:23;;;;;;;27.17;18.05;;;;;;;18.13;100.00;92623.63;4979634;28;20408;-81
2023/09/13 01:49:49;;;;;;;31.13;17.70;;;;;;;18.14;100.00;92633.13;4998281;28;20030;-80
2023/09/13 01:52:15;;;;;;;25.52;17.23;;;;;;;18.12;100.00;92630.03;5005511;28;20136;-80
2023/09/13 01:54:41;;;;;;;21.95;15.85;;;;;;;18.12;100.00;92632.66;5015438;28;20096;-81
2023/09/13 01:57:07;;;;;;;22.83;17.30;;;;;;;18.13;100.00;92631.59;4998561;28;20033;-79
2023/09/13 01:59:34;;;;;;;32.38;16.00;;;;;;;18.12;100.00;92619.44;4982007;28;20174;-80
2023/09/13 02:02:00;;;;;;;22.92;16.75;;;;;;;18.16;100.00;92629.03;4997387;28;20030;-79
2023/09/13 02:04:31;;;;;;;20.40;15.63;;;;;;;18.17;100.00;92621.84;4998352;28;20419;-80
2023/09/13 02:06:57;;;;;;;22.83;16.65;;;;;;;18.15;100.00;92619.56;4998694;28;20407;-81
2023/09/13 02:09:23;;;;;;;21.75;16.20;;;;;;;18.14;100.00;92618.00;4998909;28;20116;-82
2023/09/13 02:11:48;;;;;;;21.38;15.93;;;;;;;18.17;100.00;92620.00;4997225;28;20111;-80
2023/09/13 02:14:14;;;;;;;24.02;15.70;;;;;;;18.17;100.00;92619.19;4998335;28;20037;-81
2023/09/13 02:16:39;;;;;;;22.70;16.95;;;;;;;18.20;100.00;92621.97;4998517;28;20386;-81
2023/09/13 02:19:05;;;;;;;22.08;17.50;;;;;;;18.17;100.00;92619.19;4998313;28;20044;-80
2023/09/13 02:21:31;;;;;;;24.95;16.73;;;;;;;18.02;100.00;92616.09;4983252;28;20480;-80
2023/09/13 02:23:57;;;;;;;24.73;17.33;;;;;;;17.97;100.00;92608.38;4998227;28;20030;-81
2023/09/13 02:26:24;;;;;;;24.67;17.55;;;;;;;17.95;100.00;92607.94;4998866;28;20515;-79
2023/09/13 02:28:51;;;;;;;25.20;17.73;;;;;;;17.97;100.00;92602.28;4997769;28;20042;-80
2023/09/13 02:31:24;;;;;;;30.25;19.20;;;;;;;17.96;100.00;92604.16;5016086;28;20049;-80
2023/09/13 02:33:51;;;;;;;26.38;18.80;;;;;;;17.94;100.00;92600.31;5001863;28;20040;-80
2023/09/13 02:36:16;;;;;;;25.75;18.77;;;;;;;17.95;100.00;92610.56;4986323;28;20034;-80
2023/09/13 02:38:42;;;;;;;27.80;16.80;;;;;;;17.97;100.00;92612.88;5002299;28;20042;-80
2023/09/13 02:41:07;;;;;;;24.83;16.30;;;;;;;17.97;100.00;92610.22;5020452;28;20026;-81
2023/09/13 02:43:33;;;;;;;23.25;17.38;;;;;;;17.98;100.00;92604.63;5018677;28;20034;-80
2023/09/13 02:45:58;;;;;;;24.08;16.45;;;;;;;17.98;100.00;92612.56;4985849;28;20030;-81
2023/09/13 02:48:25;;;;;;;26.10;17.27;;;;;;;17.97;100.00;92607.59;5020192;28;20041;-80
2023/09/13 02:50:51;;;;;;;23.48;17.75;;;;;;;17.98;100.00;92603.84;5002691;28;20037;-81
2023/09/13 02:53:17;;;;;;;25.13;16.10;;;;;;;17.98;100.00;92603.84;4996372;28;20064;-81
2023/09/13 02:55:43;;;;;;;24.42;16.58;;;;;;;17.98;100.00;92609.91;5002182;28;20034;-81
2023/09/13 02:58:08;;;;;;;23.30;16.02;;;;;;;17.97;100.00;92603.09;5019918;28;20054;-80
2023/09/13 03:00:35;;;;;;;22.45;16.98;;;;;;;17.98;100.00;92612.56;5002250;28;20045;-81
2023/09/13 03:03:01;;;;;;;22.50;17.08;;;;;;;17.99;100.00;92611.47;4999690;28;20041;-81
2023/09/13 03:05:26;;;;;;;25.13;17.15;;;;;;;18.00;100.00;92613.00;5000339;28;20061;-81
2023/09/13 03:07:54;;;;;;;26.20;17.60;;;;;;;18.02;100.00;92604.75;4982051;28;20519;-80
2023/09/13 03:10:20;;;;;;;26.92;17.88;;;;;;;18.02;100.00;92604.75;4981745;28;20412;-80
2023/09/13 03:12:46;;;;;;;24.08;17.13;;;;;;;18.00;100.00;92605.06;4982187;28;20044;-80
2023/09/13 03:15:12;;;;;;;23.63;16.73;;;;;;;17.99;100.00;92600.88;4982580;28;20034;-80
2023/09/13 03:17:37;;;;;;;23.63;16.75;;;;;;;18.01;100.00;92590.72;4982022;28;20141;-80
2023/09/13 03:20:03;;;;;;;26.42;17.45;;;;;;;18.01;100.00;92592.59;4999583;28;20049;-81
2023/09/13 03:22:32;;;;;;;23.27;16.42;;;;;;;18.02;100.00;92589.63;4982156;28;20041;-80
2023/09/13 03:24:57;;;;;;;23.30;17.60;;;;;;;18.01;100.00;92580.13;4983580;28;20033;-80
2023/09/13 03:27:23;;;;;;;26.23;16.77;;;;;;;18.02;100.00;92579.03;4981843;28;20503;-81
2023/09/13 03:29:49;;;;;;;21.52;16.20;;;;;;;18.05;100.00;92582.88;4980405;28;20041;-80
2023/09/13 03:32:14;;;;;;;25.40;16.92;;;;;;;18.08;100.00;92587.50;5019635;28;20042;-80
2023/09/13 03:34:41;;;;;;;24.75;16.50;;;;;;;18.02;100.00;92584.31;4999917;28;20053;-81
2023/09/13 03:37:07;;;;;;;23.60;16.58;;;;;;;17.99;100.00;92584.19;5001460;28;20034;-80
2023/09/13 03:39:34;;;;;;;23.65;16.95;;;;;;;17.92;100.00;92578.69;5000543;28;20037;-80
2023/09/13 03:42:00;;;;;;;24.77;17.23;;;;;;;17.93;100.00;92574.94;5001146;28;20137;-79
2023/09/13 03:44:26;;;;;;;23.17;17.60;;;;;;;17.91;100.00;92572.63;4999354;28;20045;-81
2023/09/13 03:46:52;;;;;;;25.70;16.90;;;;;;;17.90;100.00;92581.66;4999966;28;20042;-79
2023/09/13 03:49:18;;;;;;;26.27;16.50;;;;;;;17.90;100.00;92576.38;5000418;28;20034;-79
2023/09/13 03:51:44;;;;;;;24.80;17.10;;;;;;;17.88;100.00;92562.69;5001157;28;20042;-80
2023/09/13 03:54:09;;;;;;;19.63;16.27;;;;;;;17.89;100.00;92566.88;4996181;28;20049;-80
2023/09/13 03:56:35;;;;;;;27.80;17.23;;;;;;;17.88;100.00;92568.75;4972519;28;20045;-80
2023/09/13 03:59:01;;;;;;;23.65;17.33;;;;;;;17.89;100.00;92574.81;4981733;28;20041;-80
2023/09/13 04:01:26;;;;;;;20.25;15.98;;;;;;;17.89;100.00;92564.22;4981673;28;20046;-80
2023/09/13 04:03:52;;;;;;;23.25;16.30;;;;;;;17.86;100.00;92554.31;4981270;28;20112;-80
2023/09/13 04:06:18;;;;;;;21.35;15.57;;;;;;;17.88;100.00;92560.81;4987152;28;20030;-80
2023/09/13 04:08:43;;;;;;;20.60;16.70;;;;;;;17.89;100.00;92558.94;5018141;28;20419;-80
2023/09/13 04:11:09;;;;;;;23.95;17.65;;;;;;;17.89;100.00;92564.22;5014913;28;20049;-81
2023/09/13 04:13:35;;;;;;;22.50;16.60;;;;;;;17.87;100.00;92553.94;5000496;28;20331;-80
2023/09/13 04:16:04;;;;;;;23.90;17.58;;;;;;;17.88;100.00;92557.38;5017608;28;20046;-81
2023/09/13 04:18:29;;;;;;;20.08;15.68;;;;;;;17.91;100.00;92554.06;4981654;28;20023;-80
2023/09/13 04:20:55;;;;;;;23.30;14.98;;;;;;;17.92;100.00;92562.78;4982494;28;20068;-81
2023/09/13 04:23:21;;;;;;;20.40;15.55;;;;;;;17.93;100.00;92570.41;4997203;28;20041;-81
2023/09/13 04:25:47;;;;;;;22.95;15.20;;;;;;;17.94;100.00;92579.13;4983081;28;20042;-80
2023/09/13 04:28:14;;;;;;;26.52;16.52;;;;;;;17.91;100.00;92577.91;4981863;28;20050;-81
2023/09/13 04:30:41;;;;;;;21.83;15.73;;;;;;;17.91;100.00;92577.91;4981458;28;20041;-80
2023/09/13 04:33:07;;;;;;;20.73;14.82;;;;;;;17.90;100.00;92571.06;4984531;28;20031;-80
2023/09/13 04:35:33;;;;;;;21.30;14.00;;;;;;;17.90;100.00;92568.44;4992546;28;20117;-81
2023/09/13 04:38:02;;;;;;;19.70;13.82;;;;;;;17.88;100.00;92565.34;4987247;28;20065;-80
2023/09/13 04:40:28;;;;;;;20.05;13.55;;;;;;;17.88;100.00;92565.34;4978176;28;20046;-80
2023/09/13 04:43:06;;;;;;;17.90;13.05;;;;;;;17.87;100.00;92567.19;4991912;28;20377;-81
2023/09/13 04:45:33;;;;;;;16.27;12.45;;;;;;;17.88;100.00;92565.34;4980417;28;20112;-83
2023/09/13 04:47:59;;;;;;;18.50;13.20;;;;;;;17.86;100.00;92564.88;4991202;28;20070;-82
2023/09/13 04:50:24;;;;;;;17.90;13.43;;;;;;;17.83;100.00;92571.63;4991121;28;20040;-83
2023/09/13 04:52:50;;;;;;;18.90;13.80;;;;;;;17.76;100.00;92571.34;4991982;28;20489;-83
2023/09/13 04:55:18;;;;;;;20.70;13.40;;;;;;;17.75;100.00;92566.38;4974225;28;20093;-83
2023/09/13 04:57:45;;;;;;;21.45;12.90;;;;;;;17.74;100.00;92573.53;4994544;28;20172;-82
2023/09/13 05:00:11;;;;;;;23.48;16.95;;;;;;;17.76;100.00;92575.88;4991313;28;20053;-82
2023/09/13 05:02:38;;;;;;;26.55;19.25;;;;;;;17.73;100.00;92573.88;4984116;28;20041;-83
2023/09/13 05:05:04;;;;;;;25.17;17.45;;;;;;;17.71;100.00;92578.72;4977295;28;20100;-83
2023/09/13 05:07:30;;;;;;;23.17;17.38;;;;;;;17.67;100.00;92584.69;4995618;28;20045;-83
2023/09/13 05:09:55;;;;;;;25.38;17.20;;;;;;;17.72;100.00;92593.50;5001205;28;20046;-83
2023/09/13 05:12:22;;;;;;;31.58;21.27;;;;;;;17.74;100.00;92601.88;5012421;28;20049;-81
2023/09/13 05:14:47;;;;;;;30.10;21.10;;;;;;;17.69;100.00;92601.00;5015117;28;20045;-80
2023/09/13 05:17:13;;;;;;;30.25;22.08;;;;;;;17.68;100.00;92609.28;5014939;28;20037;-80
2023/09/13 05:19:39;;;;;;;31.52;23.20;;;;;;;17.64;100.00;92611.78;5014230;28;20038;-81
2023/09/13 05:22:04;;;;;;;29.92;21.80;;;;;;;17.62;100.00;92618.50;5015379;28;20048;-81
2023/09/13 05:24:30;;;;;;;31.20;21.85;;;;;;;17.57;100.00;92632.72;5015112;28;20034;-81
2023/09/13 05:26:56;;;;;;;36.78;22.95;;;;;;;17.54;100.00;92633.38;5013377;28;20022;-81
2023/09/13 05:29:22;;;;;;;30.95;22.52;;;;;;;17.50;100.00;92637.78;5010716;28;20041;-82
2023/09/13 05:31:49;;;;;;;35.33;24.05;;;;;;;17.47;100.00;92631.25;4989034;28;20132;-83
2023/09/13 05:34:14;;;;;;;32.20;23.55;;;;;;;17.44;100.00;92634.53;5013429;28;20042;-83
2023/09/13 05:36:41;;;;;;;32.80;22.50;;;;;;;17.42;100.00;92641.25;5013846;28;20033;-83
2023/09/13 05:39:07;;;;;;;28.75;21.73;;;;;;;17.38;100.00;92640.34;5011300;28;20034;-83
2023/09/13 05:41:33;;;;;;;29.08;22.42;;;;;;;17.32;100.00;92634.50;5010148;28;20034;-83
2023/09/13 05:43:59;;;;;;;31.95;21.63;;;;;;;17.28;100.00;92642.31;5009178;28;20037;-84
2023/09/13 05:46:25;;;;;;;31.33;21.80;;;;;;;17.34;100.00;92655.31;5015464;28;20022;-83
2023/09/13 05:48:50;;;;;;;30.58;21.70;;;;;;;17.25;100.00;92656.19;5013217;28;20029;-83
2023/09/13 05:51:17;;;;;;;26.27;19.90;;;;;;;17.20;100.00;92664.31;4981510;28;20160;-81
2023/09/13 05:53:43;;;;;;;27.02;18.52;;;;;;;17.18;100.00;92669.16;5014634;28;20060;-82
2023/09/13 05:56:12;;;;;;;28.50;19.42;;;;;;;17.13;100.00;92658.75;5007003;28;20037;-83
2023/09/13 05:58:43;;;;;;;28.33;19.20;;;;;;;17.10;100.00;92662.03;5015414;28;20034;-83
2023/09/13 06:01:10;;;;;;;24.27;17.33;;;;;;;16.94;100.00;92666.34;5011994;28;20034;-84
2023/09/13 06:03:36;;;;;;;25.27;16.05;;;;;;;16.98;100.00;92664.63;5011930;28;20084;-84
2023/09/13 06:06:02;;;;;;;23.30;16.50;;;;;;;16.92;100.00;92671.19;5014631;28;20041;-83
2023/09/13 06:08:28;;;;;;;23.02;16.52;;;;;;;16.88;100.00;92671.03;5013799;28;20036;-82
2023/09/13 06:10:53;;;;;;;21.65;16.85;;;;;;;16.88;100.00;92675.56;5015630;28;20101;-82
2023/09/13 06:13:19;;;;;;;19.33;12.85;;;;;;;16.85;100.00;92672.47;5012298;28;20036;-81
2023/09/13 06:15:44;;;;;;;21.42;13.75;;;;;;;16.74;100.00;92681.06;5013286;28;20050;-79
2023/09/13 06:18:10;;;;;;;18.90;13.45;;;;;;;16.63;100.00;92675.34;5009942;28;20057;-79
2023/09/13 06:20:35;;;;;;;19.48;12.98;;;;;;;16.63;100.00;92678.75;5014353;28;20403;-78
2023/09/13 06:23:01;;;;;;;19.38;13.00;;;;;;;16.62;100.00;92684.38;5014880;28;20041;-79
2023/09/13 06:25:27;;;;;;;20.08;13.45;;;;;;;16.60;100.00;92679.41;5016497;28;20542;-79
2023/09/13 06:27:52;;;;;;;20.88;13.65;;;;;;;16.63;100.00;92685.91;5016648;28;20413;-80
2023/09/13 06:30:20;;;;;;;18.73;11.60;;;;;;;16.57;100.00;92687.19;5009804;28;20052;-79
2023/09/13 06:32:45;;;;;;;18.63;10.55;;;;;;;16.47;100.00;92693.59;5010288;28;20042;-79
2023/09/13 06:35:12;;;;;;;14.82;11.13;;;;;;;16.38;100.00;92696.28;5019254;28;20026;-79
2023/09/13 06:37:39;;;;;;;20.40;11.13;;;;;;;16.34;100.00;92692.72;5012921;28;20061;-79
2023/09/13 06:40:05;;;;;;;22.83;10.75;;;;;;;16.28;100.00;92701.91;5012648;28;20068;-79
2023/09/13 06:42:31;;;;;;;24.35;10.45;;;;;;;16.18;100.00;92715.44;4989935;28;20138;-79
2023/09/13 06:44:57;;;;;;;16.38;10.20;;;;;;;16.06;100.00;92731.19;5010499;28;20037;-79
2023/09/13 06:47:23;;;;;;;19.40;10.65;;;;;;;15.99;100.00;92726.38;5016550;28;20033;-79
2023/09/13 06:49:48;;;;;;;15.43;10.00;;;;;;;15.95;100.00;92728.84;5007644;28;20038;-79
2023/09/13 06:52:14;;;;;;;16.90;9.50;;;;;;;15.92;100.00;92734.78;5009169;28;20488;-79
2023/09/13 06:54:40;;;;;;;14.52;9.52;;;;;;;15.91;100.00;92735.06;4989307;28;20512;-79
2023/09/13 06:57:08;;;;;;;17.38;9.20;;;;;;;15.91;100.00;92729.78;4999377;28;20046;-77
2023/09/13 06:59:33;;;;;;;16.77;9.43;;;;;;;15.91;100.00;92729.78;5019783;28;20533;-79
2023/09/13 07:01:59;;;;;;;16.50;10.25;;;;;;;15.90;100.00;92733.53;5017195;28;20030;-79
2023/09/13 07:04:25;;;;;;;18.00;10.27;;;;;;;15.90;100.00;92729.03;5010401;28;20045;-79
2023/09/13 07:06:50;;;;;;;16.08;9.95;;;;;;;15.89;100.00;92727.47;5004495;28;20037;-80
2023/09/13 07:09:16;;;;;;;15.85;10.68;;;;;;;15.91;100.00;92740.34;5022173;28;20049;-79
2023/09/13 07:11:41;;;;;;;13.70;10.15;;;;;;;15.90;100.00;92739.59;5021209;28;20101;-80
2023/09/13 07:14:07;;;;;;;15.50;10.88;;;;;;;15.91;100.00;92727.94;5021304;28;20042;-80
2023/09/13 07:16:33;;;;;;;14.23;10.75;;;;;;;15.95;100.00;92736.00;5022143;28;20026;-80
2023/09/13 07:18:58;;;;;;;15.98;11.48;;;;;;;15.97;100.00;92733.84;5025618;28;20096;-80
2023/09/13 07:21:24;;;;;;;14.27;10.30;;;;;;;15.96;100.00;92734.91;5023588;28;20033;-79
2023/09/13 07:23:51;;;;;;;16.08;11.15;;;;;;;15.97;100.00;92747.03;5024775;28;20065;-79
2023/09/13 07:26:16;;;;;;;18.95;11.13;;;;;;;15.96;100.00;92738.34;5025455;28;20049;-80
2023/09/13 07:28:42;;;;;;;15.70;12.07;;;;;;;15.97;100.00;92739.88;5029789;28;20049;-78
2023/09/13 07:31:08;;;;;;;16.67;11.32;;;;;;;16.02;100.00;92737.06;5025316;28;20045;-79
2023/09/13 07:33:34;;;;;;;20.05;12.00;;;;;;;16.15;100.00;92750.44;5044852;28;20045;-79
2023/09/13 07:36:00;;;;;;;15.98;10.82;;;;;;;16.24;100.00;92753.81;5043748;28;20029;-79
2023/09/13 07:38:25;;;;;;;15.75;11.45;;;;;;;16.33;100.00;92748.53;5044390;28;20037;-79
2023/09/13 07:40:51;;;;;;;16.05;11.57;;;;;;;16.40;100.00;92744.28;5040226;28;20278;-81
2023/09/13 07:43:17;;;;;;;16.27;11.52;;;;;;;16.52;100.00;92751.56;5036690;28;20072;-79
2023/09/13 07:45:43;;;;;;;17.98;12.27;;;;;;;16.57;100.00;92756.69;5037301;28;20040;-80
2023/09/13 07:48:08;;;;;;;16.80;11.25;;;;;;;16.56;100.00;92759.63;5037184;28;20026;-80
2023/09/13 07:50:40;;;;;;;18.27;11.50;;;;;;;16.54;100.00;92764.47;5028559;28;20112;-80
2023/09/13 07:53:12;;;;;;;16.42;11.73;;;;;;;16.47;100.00;92764.19;5019727;28;20033;-81
2023/09/13 07:55:39;;;;;;;16.33;11.77;;;;;;;16.47;100.00;92764.94;5030110;28;20126;-80
2023/09/13 07:58:06;;;;;;;15.55;10.65;;;;;;;16.45;100.00;92765.25;5025356;28;20053;-80
2023/09/13 08:00:32;;;;;;;15.18;11.98;;;;;;;16.56;100.00;92762.28;5017549;28;20432;-80
2023/09/13 08:02:59;;;;;;;17.52;12.07;;;;;;;16.58;100.00;92763.50;5018179;28;20040;-80
2023/09/13 08:05:25;;;;;;;16.17;11.50;;;;;;;16.63;100.00;92767.84;5018320;28;20038;-80
2023/09/13 08:07:52;;;;;;;18.85;12.90;;;;;;;16.71;100.00;92772.34;5017919;28;20072;-81
2023/09/13 08:10:17;;;;;;;16.45;11.40;;;;;;;16.75;100.00;92767.97;5016834;28;20042;-80
2023/09/13 08:12:43;;;;;;;16.83;10.32;;;;;;;16.83;100.00;92774.34;5036615;28;20514;-81
2023/09/13 08:15:09;;;;;;;13.45;9.52;;;;;;;16.83;100.00;92764.53;5037519;28;20041;-80
2023/09/13 08:17:35;;;;;;;11.63;8.52;;;;;;;16.87;100.00;92774.50;5019764;28;20025;-80
2023/09/13 08:20:02;;;;;;;11.13;8.45;;;;;;;16.92;100.00;92775.06;5030935;28;20064;-79
2023/09/13 08:22:27;;;;;;;15.15;8.90;;;;;;;16.92;100.00;92777.72;5019279;28;20417;-81
2023/09/13 08:24:53;;;;;;;9.93;7.30;;;;;;;16.97;100.00;92776.75;5036644;28;20052;-80
2023/09/13 08:27:19;;;;;;;11.88;8.75;;;;;;;17.02;100.00;92784.50;5038197;28;20109;-80
2023/09/13 08:29:45;;;;;;;13.85;9.70;;;;;;;17.07;100.00;92773.78;5037281;28;20072;-80
2023/09/13 08:32:10;;;;;;;12.63;8.85;;;;;;;17.09;100.00;92787.47;5038519;28;20061;-80
2023/09/13 08:34:36;;;;;;;14.75;10.07;;;;;;;17.08;100.00;92791.19;5038400;28;20407;-80
2023/09/13 08:37:02;;;;;;;15.10;10.55;;;;;;;17.04;100.00;92790.25;5020545;28;20033;-81
2023/09/13 08:39:28;;;;;;;13.73;9.40;;;;;;;17.08;100.00;92785.88;5020190;28;20048;-80
2023/09/13 08:41:55;;;;;;;13.48;9.45;;;;;;;17.02;100.00;92792.44;5038888;28;20485;-80
2023/09/13 08:44:22;;;;;;;13.60;9.30;;;;;;;16.97;100.00;92792.63;5038016;28;20041;-80
2023/09/13 08:46:55;;;;;;;12.55;9.60;;;;;;;16.83;100.00;92793.63;5026689;28;20029;-81
2023/09/13 08:49:22;;;;;;;12.98;9.10;;;;;;;16.75;100.00;92793.63;5037362;28;20029;-81
2023/09/13 08:51:51;;;;;;;13.45;9.98;;;;;;;16.87;100.00;92790.34;5037364;28;20028;-81
2023/09/13 08:54:17;;;;;;;12.50;8.75;;;;;;;16.81;100.00;92797.66;5003221;28;20487;-80
2023/09/13 08:56:43;;;;;;;16.30;10.55;;;;;;;16.80;100.00;92798.78;5019532;28;20022;-80
2023/09/13 08:59:10;;;;;;;13.95;10.02;;;;;;;16.84;100.00;92800.47;5036941;28;20037;-81
2023/09/13 09:01:37;;;;;;;14.55;10.60;;;;;;;16.84;100.00;92792.53;5034282;28;20021;-81
2023/09/13 09:04:03;;;;;;;17.10;11.80;;;;;;;16.94;100.00;92790.63;5017238;28;20407;-81
2023/09/13 09:06:32;;;;;;;15.20;10.43;;;;;;;17.02;100.00;92792.44;4999783;28;20046;-81
2023/09/13 09:09:00;;;;;;;14.23;10.48;;;;;;;17.14;100.00;92791.78;5031546;28;20029;-81
2023/09/13 09:11:27;;;;;;;14.00;10.27;;;;;;;17.17;100.00;92799.84;5035910;28;20106;-80
2023/09/13 09:13:58;;;;;;;17.25;10.68;;;;;;;17.35;100.00;92810.34;5037091;28;20120;-81
2023/09/13 09:16:26;;;;;;;19.30;10.75;;;;;;;17.36;100.00;92807.38;5036748;28;20033;-81
2023/09/13 09:18:53;;;;;;;15.23;8.27;;;;;;;17.29;100.00;92807.09;5029930;28;20434;-81
2023/09/13 09:21:20;;;;;;;12.52;8.93;;;;;;;17.41;100.00;92803.78;5036532;28;20038;-81
2023/09/13 09:23:45;;;;;;;14.55;8.48;;;;;;;17.36;100.00;92811.88;5036824;28;20037;-79
2023/09/13 09:26:11;;;;;;;157.65;13.60;;;;;;;17.09;100.00;92813.91;5037065;28;20483;-80
2023/09/13 09:28:37;;;;;;;15.75;10.65;;;;;;;16.93;100.00;92820.78;5037064;28;20064;-80
2023/09/13 09:31:03;;;;;;;15.27;9.15;;;;;;;16.83;100.00;92812.13;5036379;28;20029;-81
2023/09/13 09:33:30;;;;;;;16.33;11.25;;;;;;;16.68;100.00;92807.31;5018598;28;20495;-79
2023/09/13 09:35:58;;;;;;;286.35;16.70;;;;;;;16.59;100.00;92806.56;5018587;28;20388;-81
2023/09/13 09:38:27;;;;;;;36.63;12.05;;;;;;;16.47;100.00;92811.75;5036087;28;20116;-79
2023/09/13 09:40:57;;;;;;;18.02;12.85;;;;;;;16.50;100.00;92813.75;5016877;28;20048;-80
2023/09/13 09:43:23;;;;;;;15.77;10.90;;;;;;;16.66;100.00;92796.28;4998603;28;20328;-79
2023/09/13 09:45:49;;;;;;;14.95;11.20;;;;;;;16.77;100.00;92799.38;5015953;28;20403;-81
2023/09/13 09:48:15;;;;;;;15.77;11.23;;;;;;;16.94;100.00;92801.22;5032469;28;20438;-81
2023/09/13 09:50:45;;;;;;;14.55;10.57;;;;;;;17.09;100.00;92800.69;5031249;28;20053;-80
2023/09/13 09:53:13;;;;;;;244.88;16.75;;;;;;;16.99;100.00;92798.38;5022534;28;20087;-81
2023/09/13 09:55:39;;;;;;;715.53;29.45;;;;;;;16.89;100.00;92798.72;5035337;28;20034;-80
2023/09/13 09:58:05;;;;;;;814.90;33.55;;;;;;;16.71;100.00;92798.78;5023563;28;20470;-79
2023/09/13 10:00:42;;;;;;;13.30;9.30;;;;;;;16.68;100.00;92798.63;5035343;28;20120;-80
2023/09/13 10:03:07;;;;;;;15.38;10.95;;;;;;;16.80;100.00;92802.19;5022335;28;20052;-81
2023/09/13 10:05:33;;;;;;;99.18;14.63;;;;;;;16.81;100.00;92795.03;5033910;28;20033;-80
2023/09/13 10:07:58;;;;;;;131.43;15.00;;;;;;;16.79;100.00;92797.19;5017619;28;20033;-80
2023/09/13 10:10:29;;;;;;;15.85;11.18;;;;;;;16.83;100.00;92798.13;5035458;28;20037;-80
2023/09/13 10:12:55;;;;;;;17.58;12.38;;;;;;;16.83;100.00;92796.25;5035056;28;20167;-81
2023/09/13 10:15:21;;;;;;;17.02;11.77;;;;;;;16.97;100.00;92797.91;5035046;28;20046;-81
2023/09/13 10:17:48;;;;;;;10.50;6.65;;;;;;;17.10;100.00;92799.56;5035029;28;20422;-79
2023/09/13 10:20:17;;;;;;;15.10;9.45;;;;;;;17.13;100.00;92798.94;5034595;28;20122;-80
2023/09/13 10:22:46;;;;;;;18.45;12.60;;;;;;;17.24;100.00;92797.47;5026896;28;20022;-80
2023/09/13 10:25:15;;;;;;;54.90;12.88;;;;;;;17.14;100.00;92797.84;5023254;28;20033;-80
2023/09/13 10:27:46;;;;;;;70.72;14.15;;;;;;;17.12;100.00;92802.69;5032353;28;20049;-80
2023/09/13 10:30:15;;;;;;;19.75;11.70;;;;;;;16.88;100.00;92802.47;5027310;28;20376;-81
2023/09/13 10:32:47;;;;;;;15.43;9.85;;;;;;;17.07;100.00;92805.50;5022574;28;20033;-81
2023/09/13 10:35:13;;;;;;;;;;;;;;;17.25;100.00;92801.69;5031898;28;20034;-81
2023/09/13 10:37:42;;;;;;;12.85;9.27;;;;;;;17.41;100.00;92806.44;5023859;28;19913;-80
2023/09/13 10:40:50;;;;;;;11.60;8.20;;;;;;;17.59;100.00;92807.88;5024787;28;20030;-81
2023/09/13 10:43:17;;;;;;;4.82;3.15;;;;;;;17.75;100.00;92807.31;5031371;28;20030;-78
2023/09/13 10:45:43;;;;;;;4.75;2.65;;;;;;;17.83;100.00;92803.84;5016612;28;20033;-81
2023/09/13 10:48:09;;;;;;;4.18;2.35;;;;;;;18.01;100.00;92815.88;5014565;28;20339;-81
2023/09/13 10:50:34;;;;;;;5.57;3.53;;;;;;;18.14;100.00;92807.97;5033165;28;20042;-81
2023/09/13 10:53:02;;;;;;;5.40;3.70;;;;;;;18.23;100.00;92806.78;5036756;28;20037;-82
2023/09/13 10:55:28;;;;;;;5.43;3.47;;;;;;;18.49;100.00;92813.72;5036268;28;20033;-81
2023/09/13 10:57:55;;;;;;;6.63;3.75;;;;;;;18.45;100.00;92804.88;5037737;28;20041;-80
2023/09/13 11:00:21;;;;;;;11.38;4.60;;;;;;;18.47;100.00;92810.63;5038846;28;20061;-80
2023/09/13 11:02:47;;;;;;;5.25;2.38;;;;;;;18.44;100.00;92808.63;5021333;28;20036;-80
2023/09/13 11:05:14;;;;;;;11.63;7.45;;;;;;;18.46;100.00;92798.47;5030225;28;20036;-80
2023/09/13 11:07:46;;;;;;;12.73;9.15;;;;;;;18.48;100.00;92802.34;5039104;28;20112;-81
2023/09/13 11:10:19;;;;;;;11.35;8.10;;;;;;;18.46;100.00;92804.56;5039441;28;20042;-81
2023/09/13 11:12:49;;;;;;;10.20;7.25;;;;;;;18.47;100.00;92800.03;5038663;28;20495;-82